Huvudsida
METAR-TAF:

METAR-TAF

Flygplatser :

Harstad-Narviks flygplats. Evenes

Evenes, Norge

latitud: 68-31N, longitud: 016-41E, höjd: 26 m

Aktuellt väderrapport

Denna rapport gjordes för 26 minuter sedan, klockan 04:20 UTC
Vind 2 kt varierande vindriktning
Temperatur -3°C
Fuktighet 93%
Tryck 993 hPa
Sikt 10 km eller mer
Få moln på en höjd av 1000 ft
Brutna moln på en höjd av 2500 ft

METAR: ENEV 190420Z VRB02KT 9999 FEW010 BKN025 M03/M04 Q0993 RMK WIND 1400FT 36007KT

Tid: 05:46 (04:46 UTC)

Väderprognos

Denna rapport gjordes för 2 timmar och 46 minuter sedan, klockan 02:00 UTC
Prognos gäller från 19 kl. 03 UTC till 19 kl. 12 UTC
Vind 5 kt från nord/nordväst
Sikt 10 km eller mer
Få moln på en höjd av 1500 ft
Brutna moln på en höjd av 5000 ft
Sannolikhet 40%
från 19 kl. 03 UTC till 19 kl. 06 UTC
Sikt: 2500 m
på en höjd av 900 ft
lätta snöbyar

TAF: ENEV 190200Z 1903/1912 34005KT 9999 FEW015 BKN050 PROB40 1903/1906 2500 -SHSN VV009

Aktuella väderrapporter och prognoser från 4000 flygplatser (METAR- och TAF-rapporter).

De tillgängliga stationerna syns som gula och röda prickar på kartan.

För musen över prickarna för att se namnen på stationerna.

Klicka sedan för att få väderrapporter och prognoser.

För att ändra kartan: Klicka på de gröna knapparna med ett svart kors på för att zooma in; den gröna knappen med ett streck på för att zooma ut; eller på de gröna pilarna för angränsande kartor.


METAR-TAF: